Cincinnati Northern Kentucky International Airport
KCVG : now visible

Airfield :











YOU CAN JOIN US ON...

 
LOGIN :

Register | Disclaimer

   EN    FR    IT 

 









Legend :    VFR   Marginal VFR   IFR   Intensive IFR   Very Intensive IFR
Visi :
Ceiling :
>= 8 km
>= 3000ft
5 to 8 km
1000 to 3000 ft
1500m to 5 km
500 to 1000 ft
800 to 1500m
200 to 500 ft
< 800m
< 200 ft
Symbols :   Thunderstorms  Fog  Heavy snow  Heavy precipitations  Wind > 20 kt







- Airport Elevation : 896 ft
- IATA code : CVG


KCVG - Cincinnati Northern Kentucky International

CURRENT METAR :
  • 190952Z 18006KT 10SM FEW150 SCT180 21/18 A3000 RMK AO2 SLP146 T02110183

EXPIRED METARs :
  • 190852Z 21004KT 10SM SCT050 OVC130 22/19 A3000 RMK AO2 RAE0758 SLP145 P0000 60000 T02170189 55003
  • 190752Z 00000KT 10SM -RA FEW070 SCT110 OVC160 23/18 A2998 RMK AO2 LTG DSNT SW AND W RAB27 SLP140 P0000 T02330183

TAF KCVG
Valid from the 19 at 09:00 until the 20 at 12:00 UTC


190856Z 1909/2012 21004KT P6SM SCT050 OVC130
FM191400 23007KT P6SM VCSH BKN050
FM200200 19003KT P6SM SCT050 BKN250
No reported NOTAMs for that airfield.



MET'MAP, your aeronautical weather chart ! - Copyright ORBIFLY December 2007 - Disclaimer

ORBIFLY MET'MAP TEAM :

Programming & Development : Alexandra Zaïnal
Concept & Development : Baudouin d'Aumeries
Co-Development & Prog : Marc-Olivier Méhu
Technical & hardware support : Manuel Goepfert

Contact : metmap@orbifly.com




SOURCES & CREDITS :

   NOAA       Earth
Advisory